createdAt,value
2018-11-23T00:00:01.413Z,52.70
2018-11-23T00:02:29.707Z,52.60
2018-11-23T00:04:57.944Z,55.93
2018-11-23T00:07:26.266Z,51.20
2018-11-23T00:09:54.585Z,48.60
2018-11-23T00:12:22.970Z,56.10
2018-11-23T00:14:51.310Z,50.83
2018-11-23T00:17:19.580Z,50.47
2018-11-23T00:19:47.870Z,48.80
2018-11-23T00:22:16.113Z,45.93
2018-11-23T00:24:44.446Z,50.80
2018-11-23T00:27:12.692Z,53.23
2018-11-23T00:29:40.987Z,61.93
2018-11-23T00:32:09.310Z,57.53
2018-11-23T00:34:37.706Z,54.87
2018-11-23T00:37:06.066Z,51.23
2018-11-23T00:39:34.412Z,56.63
2018-11-23T00:42:02.662Z,51.17
2018-11-23T00:44:30.940Z,47.57
2018-11-23T00:46:59.223Z,42.57
2018-11-23T00:49:27.520Z,50.67
2018-11-23T00:51:55.793Z,48.53
2018-11-23T00:54:24.082Z,54.07
2018-11-23T00:56:52.366Z,54.43
2018-11-23T00:59:20.650Z,49.40
2018-11-23T01:01:54.296Z,65.57
2018-11-23T01:04:22.640Z,63.27
2018-11-23T01:06:51.056Z,56.40
2018-11-23T01:09:20.384Z,53.90
2018-11-23T01:11:49.747Z,63.67
2018-11-23T01:14:18.010Z,70.60
2018-11-23T01:16:46.395Z,79.67
2018-11-23T01:19:14.714Z,72.90
2018-11-23T01:21:43.094Z,70.80
2018-11-23T01:24:11.374Z,61.87
2018-11-23T01:26:39.680Z,59.40
2018-11-23T01:29:07.987Z,58.07
2018-11-23T01:31:36.347Z,59.33
2018-11-23T01:34:04.676Z,60.10
2018-11-23T01:36:33.017Z,59.43
2018-11-23T01:39:01.266Z,55.80
2018-11-23T01:41:29.592Z,63.03
2018-11-23T01:43:57.839Z,72.27
2018-11-23T01:46:26.126Z,67.03
2018-11-23T01:48:54.419Z,65.77
2018-11-23T01:51:22.676Z,71.70
2018-11-23T01:53:50.937Z,68.10
2018-11-23T01:56:19.237Z,79.12
2018-11-23T01:58:47.499Z,70.67
2018-11-23T02:01:15.837Z,74.40
2018-11-23T02:03:44.117Z,62.23
2018-11-23T02:06:12.388Z,58.77
2018-11-23T02:08:40.625Z,53.63
2018-11-23T02:11:08.938Z,56.80
2018-11-23T02:13:37.219Z,56.50
2018-11-23T02:16:05.483Z,50.70
2018-11-23T02:18:33.779Z,55.87
2018-11-23T02:21:02.032Z,57.78
2018-11-23T02:23:30.446Z,56.13
2018-11-23T02:25:58.745Z,57.73
2018-11-23T02:28:27.019Z,49.40
2018-11-23T02:30:55.299Z,49.93
2018-11-23T02:33:23.575Z,52.35
2018-11-23T02:35:51.955Z,54.77
2018-11-23T02:38:20.217Z,51.60
2018-11-23T02:40:48.523Z,47.90
2018-11-23T02:43:16.772Z,49.70
2018-11-23T02:45:45.102Z,46.23
2018-11-23T02:48:13.373Z,49.90
2018-11-23T02:50:41.677Z,51.10
2018-11-23T02:53:09.946Z,51.85
2018-11-23T02:55:38.283Z,55.52
2018-11-23T02:58:06.536Z,41.58
2018-11-23T03:00:34.917Z,43.02
2018-11-23T03:03:03.229Z,46.67
2018-11-23T03:05:31.558Z,48.38
2018-11-23T03:07:59.830Z,49.33
2018-11-23T03:10:28.169Z,42.20
2018-11-23T03:12:56.480Z,48.13
2018-11-23T03:15:24.857Z,47.47
2018-11-23T03:17:53.162Z,41.00
2018-11-23T03:20:22.407Z,44.63
2018-11-23T03:22:50.721Z,49.10
2018-11-23T03:25:19.006Z,42.85
2018-11-23T03:27:47.282Z,51.00
2018-11-23T03:30:17.752Z,41.88
2018-11-23T03:32:46.965Z,42.88
2018-11-23T03:35:15.384Z,49.50
2018-11-23T03:37:44.925Z,51.90
2018-11-23T03:40:12.479Z,48.75
2018-11-23T03:42:40.852Z,58.68
2018-11-23T03:45:10.503Z,54.25
2018-11-23T03:47:39.099Z,62.67
2018-11-23T03:50:08.283Z,62.38
2018-11-23T03:52:36.661Z,52.10
2018-11-23T03:55:05.110Z,55.60
2018-11-23T03:57:33.473Z,57.88
2018-11-23T04:00:01.779Z,50.70
2018-11-23T04:02:30.074Z,46.98
2018-11-23T04:04:58.544Z,64.90
2018-11-23T04:07:26.829Z,61.20
2018-11-23T04:09:55.209Z,60.23
2018-11-23T04:12:23.514Z,62.48
2018-11-23T04:14:51.831Z,59.63
2018-11-23T04:17:20.138Z,58.45
2018-11-23T04:19:48.489Z,62.93
2018-11-23T04:22:16.798Z,53.85
2018-11-23T04:24:45.079Z,66.35
2018-11-23T04:27:13.374Z,57.25
2018-11-23T04:29:41.634Z,69.15
2018-11-23T04:32:10.028Z,74.05
2018-11-23T04:34:38.299Z,74.27
2018-11-23T04:37:06.743Z,76.02
2018-11-23T04:39:35.047Z,72.85
2018-11-23T04:42:04.008Z,62.05
2018-11-23T04:44:32.248Z,73.65
2018-11-23T04:47:06.957Z,65.43
2018-11-23T04:49:35.258Z,76.05
2018-11-23T04:52:03.591Z,62.50
2018-11-23T04:54:31.909Z,62.53
2018-11-23T04:57:00.214Z,57.27
2018-11-23T04:59:28.559Z,53.35
2018-11-23T05:01:56.839Z,52.08
2018-11-23T05:04:25.148Z,50.20
2018-11-23T05:06:53.491Z,44.23
2018-11-23T05:09:21.758Z,45.03
2018-11-23T05:11:50.334Z,145.38
2018-11-23T05:14:18.367Z,98.65
2018-11-23T05:16:46.636Z,69.30
2018-11-23T05:19:14.916Z,65.25
2018-11-23T05:21:43.210Z,65.32
2018-11-23T05:24:11.597Z,57.65
2018-11-23T05:26:39.994Z,57.35
2018-11-23T05:29:08.280Z,56.40
2018-11-23T05:31:36.631Z,50.88
2018-11-23T05:34:04.961Z,49.80
2018-11-23T05:36:33.265Z,43.87
2018-11-23T05:39:01.648Z,48.85
2018-11-23T05:41:29.921Z,47.33
2018-11-23T05:43:58.263Z,45.92
2018-11-23T05:46:26.531Z,51.80
2018-11-23T05:48:54.863Z,50.55
2018-11-23T05:51:23.078Z,50.10
2018-11-23T05:53:51.386Z,47.98
2018-11-23T05:56:19.642Z,44.58
2018-11-23T05:58:47.934Z,45.15
2018-11-23T06:01:16.202Z,48.05
2018-11-23T06:03:44.488Z,49.55
2018-11-23T06:06:12.781Z,52.10
2018-11-23T06:08:41.210Z,44.88
2018-11-23T06:11:09.506Z,36.68
2018-11-23T06:13:37.787Z,43.60
2018-11-23T06:16:06.049Z,40.50
2018-11-23T06:18:34.322Z,40.33
2018-11-23T06:21:02.595Z,48.17
2018-11-23T06:23:30.880Z,40.33
2018-11-23T06:26:06.796Z,40.35
2018-11-23T06:28:35.163Z,48.43
2018-11-23T06:31:03.449Z,43.13
2018-11-23T06:33:34.015Z,47.10
2018-11-23T06:36:02.305Z,45.85
2018-11-23T06:38:30.620Z,43.92
2018-11-23T06:40:59.448Z,43.60
2018-11-23T06:43:27.419Z,40.12
2018-11-23T06:45:56.403Z,39.92
2018-11-23T06:48:24.746Z,45.60
2018-11-23T06:50:53.214Z,48.48
2018-11-23T06:53:21.504Z,40.58
2018-11-23T06:55:49.822Z,41.65
2018-11-23T06:58:18.099Z,43.73
2018-11-23T07:00:46.405Z,42.62
2018-11-23T07:03:14.723Z,41.85
2018-11-23T07:05:42.994Z,52.43
2018-11-23T07:08:12.195Z,50.75
2018-11-23T07:10:40.508Z,45.78
2018-11-23T07:13:09.277Z,48.10
2018-11-23T07:15:37.968Z,46.95
2018-11-23T07:18:06.295Z,43.10
2018-11-23T07:20:34.765Z,43.70
2018-11-23T07:23:03.059Z,48.80
2018-11-23T07:25:31.326Z,49.10
2018-11-23T07:27:59.611Z,40.48
2018-11-23T07:30:29.353Z,43.23
2018-11-23T07:32:57.711Z,46.10
2018-11-23T07:35:26.008Z,46.33
2018-11-23T07:37:54.333Z,43.93
2018-11-23T07:40:37.934Z,43.83
2018-11-23T07:43:06.233Z,45.48
2018-11-23T07:45:34.568Z,46.15
2018-11-23T07:48:02.857Z,44.40
2018-11-23T07:50:31.130Z,41.47
2018-11-23T07:52:59.415Z,40.52
2018-11-23T07:55:27.751Z,51.40
2018-11-23T07:57:56.003Z,46.92
2018-11-23T08:00:25.253Z,52.33
2018-11-23T08:02:53.570Z,50.90
2018-11-23T08:05:22.230Z,50.87
2018-11-23T08:07:50.536Z,49.58
2018-11-23T08:10:18.083Z,52.30
2018-11-23T08:12:48.592Z,46.77
2018-11-23T08:15:19.048Z,49.10
2018-11-23T08:17:47.351Z,55.10
2018-11-23T08:20:16.978Z,44.60
2018-11-23T08:22:45.250Z,45.70
2018-11-23T08:25:14.729Z,51.30
2018-11-23T08:27:43.751Z,54.57
2018-11-23T08:30:17.293Z,51.77
2018-11-23T08:32:45.615Z,48.37
2018-11-23T08:35:14.114Z,52.63
2018-11-23T08:37:42.411Z,44.43
2018-11-23T08:40:16.514Z,47.20
2018-11-23T08:42:45.596Z,47.50
2018-11-23T08:45:15.420Z,47.73
2018-11-23T08:47:43.684Z,49.60
2018-11-23T08:50:14.442Z,45.17
2018-11-23T08:52:42.684Z,39.60
2018-11-23T08:55:11.941Z,43.87
2018-11-23T08:57:40.883Z,48.43
2018-11-23T09:00:16.124Z,53.27
2018-11-23T09:02:45.534Z,38.60
2018-11-23T09:05:14.147Z,50.53
2018-11-23T09:07:43.232Z,38.70
2018-11-23T09:10:13.933Z,41.53
2018-11-23T09:12:42.733Z,36.90
2018-11-23T09:15:12.535Z,38.03
2018-11-23T09:17:41.288Z,36.40
2018-11-23T09:20:10.783Z,36.93
2018-11-23T09:22:39.068Z,39.07
2018-11-23T09:25:09.482Z,39.60
2018-11-23T09:27:37.759Z,37.93
2018-11-23T09:30:10.487Z,38.40
2018-11-23T09:32:38.752Z,35.40
2018-11-23T09:35:08.016Z,34.03
2018-11-23T09:37:36.470Z,40.13
2018-11-23T09:40:06.275Z,34.30
2018-11-23T09:42:34.609Z,37.70
2018-11-23T09:45:02.960Z,32.93
2018-11-23T09:47:31.283Z,34.40
2018-11-23T09:49:59.599Z,37.40
2018-11-23T09:52:27.898Z,33.50
2018-11-23T09:54:56.217Z,33.13
2018-11-23T09:57:24.517Z,36.73
2018-11-23T09:59:52.804Z,40.60
2018-11-23T10:02:21.105Z,37.90
2018-11-23T10:04:49.420Z,37.87
2018-11-23T10:07:17.710Z,35.43
2018-11-23T10:09:45.995Z,34.50
2018-11-23T10:12:14.301Z,31.10
2018-11-23T10:14:42.591Z,33.47
2018-11-23T10:17:10.879Z,33.43
2018-11-23T10:19:39.279Z,30.10
2018-11-23T10:22:07.556Z,32.90
2018-11-23T10:24:35.832Z,30.83
2018-11-23T10:27:04.071Z,36.90
2018-11-23T10:29:32.353Z,35.30
2018-11-23T10:32:00.607Z,32.57
2018-11-23T10:34:28.903Z,39.70
2018-11-23T10:36:57.167Z,28.90
2018-11-23T10:39:25.423Z,35.13
2018-11-23T10:41:53.735Z,32.43
2018-11-23T10:44:22.035Z,35.40
2018-11-23T10:46:50.340Z,37.77
2018-11-23T10:49:18.599Z,37.33
2018-11-23T10:51:46.963Z,35.43
2018-11-23T10:54:15.231Z,41.90
2018-11-23T10:56:43.562Z,39.57
2018-11-23T10:59:11.819Z,34.67
2018-11-23T11:01:45.400Z,45.53
2018-11-23T11:04:19.093Z,35.50
2018-11-23T11:06:54.718Z,33.10
2018-11-23T11:09:22.974Z,35.20
2018-11-23T11:11:51.293Z,30.60
2018-11-23T11:14:19.560Z,26.87
2018-11-23T11:16:47.886Z,28.97
2018-11-23T11:19:16.141Z,28.23
2018-11-23T11:21:44.425Z,26.73
2018-11-23T11:24:12.766Z,30.73
2018-11-23T11:26:41.030Z,34.00
2018-11-23T11:29:09.316Z,28.50
2018-11-23T11:31:37.610Z,34.73
2018-11-23T11:34:05.911Z,26.83
2018-11-23T11:36:34.230Z,23.83
2018-11-23T11:39:02.606Z,24.57
2018-11-23T11:41:30.891Z,24.70
2018-11-23T11:43:59.180Z,20.97
2018-11-23T11:46:27.462Z,23.70
2018-11-23T11:48:55.767Z,22.43
2018-11-23T11:51:24.079Z,21.20
2018-11-23T11:53:52.315Z,19.80
2018-11-23T11:56:20.606Z,21.13
2018-11-23T11:58:48.973Z,18.33
2018-11-23T12:01:17.251Z,19.00
2018-11-23T12:03:45.664Z,19.17
2018-11-23T12:06:13.992Z,20.23
2018-11-23T12:08:42.386Z,22.37
2018-11-23T12:11:10.688Z,16.80
2018-11-23T12:13:38.975Z,19.03
2018-11-23T12:16:07.300Z,17.30
2018-11-23T12:18:35.554Z,14.93
2018-11-23T12:21:03.854Z,16.73
2018-11-23T12:23:32.152Z,19.27
2018-11-23T12:26:00.411Z,16.03
2018-11-23T12:28:28.763Z,16.00
2018-11-23T12:30:57.040Z,17.47
2018-11-23T12:33:25.318Z,23.47
2018-11-23T12:35:53.658Z,21.83
2018-11-23T12:38:21.991Z,16.03
2018-11-23T12:40:50.307Z,16.20
2018-11-23T12:43:18.603Z,14.60
2018-11-23T12:45:46.949Z,17.30
2018-11-23T12:48:15.311Z,13.03
2018-11-23T12:50:43.598Z,13.73
2018-11-23T12:53:11.883Z,16.87
2018-11-23T12:55:40.179Z,11.80
2018-11-23T12:58:08.494Z,17.27
2018-11-23T13:00:36.818Z,14.83
2018-11-23T13:03:05.657Z,17.63
2018-11-23T13:05:34.823Z,14.47
2018-11-23T13:08:04.659Z,13.73
2018-11-23T13:10:33.068Z,16.23
2018-11-23T13:13:02.007Z,14.57
2018-11-23T13:15:30.271Z,15.73
2018-11-23T13:17:59.302Z,12.20
2018-11-23T13:20:27.610Z,13.77
2018-11-23T13:22:55.926Z,11.50
2018-11-23T13:25:25.751Z,12.50
2018-11-23T13:27:54.118Z,16.30
2018-11-23T13:30:24.052Z,11.87
2018-11-23T13:32:52.477Z,12.47
2018-11-23T13:35:21.005Z,14.57
2018-11-23T13:37:49.374Z,13.83
2018-11-23T13:40:19.092Z,13.77
2018-11-23T13:42:47.926Z,15.70
2018-11-23T13:45:17.794Z,11.17
2018-11-23T13:47:46.109Z,13.47
2018-11-23T13:50:15.685Z,11.40
2018-11-23T13:52:45.003Z,13.10
2018-11-23T13:55:13.342Z,13.50
2018-11-23T13:57:41.641Z,14.20
2018-11-23T14:00:12.077Z,15.03
2018-11-23T14:02:40.361Z,19.47
2018-11-23T14:05:10.803Z,12.67
2018-11-23T14:07:39.154Z,16.10
2018-11-23T14:10:09.720Z,17.60
2018-11-23T14:12:38.140Z,17.20
2018-11-23T14:15:09.075Z,20.57
2018-11-23T14:17:37.409Z,19.80
2018-11-23T14:20:07.335Z,23.30
2018-11-23T14:22:35.690Z,20.23
2018-11-23T14:25:04.241Z,20.23
2018-11-23T14:27:32.561Z,21.77
2018-11-23T14:30:00.865Z,20.50
2018-11-23T14:32:29.143Z,20.73
2018-11-23T14:34:57.471Z,23.33
2018-11-23T14:37:25.789Z,18.30
2018-11-23T14:39:54.130Z,17.77
2018-11-23T14:42:22.788Z,22.23
2018-11-23T14:44:54.665Z,30.27
2018-11-23T14:47:22.971Z,19.13
2018-11-23T14:49:51.252Z,22.33
2018-11-23T14:52:20.576Z,25.80
2018-11-23T14:54:48.879Z,20.90
2018-11-23T14:57:17.174Z,21.63
2018-11-23T14:59:45.545Z,20.37
2018-11-23T15:02:13.863Z,24.40
2018-11-23T15:04:42.194Z,20.80
2018-11-23T15:07:10.463Z,18.30
2018-11-23T15:09:39.806Z,24.43
2018-11-23T15:12:08.115Z,21.73
2018-11-23T15:14:36.449Z,20.67
2018-11-23T15:17:04.865Z,17.77
2018-11-23T15:19:33.161Z,19.73
2018-11-23T15:22:01.540Z,19.93
2018-11-23T15:24:29.830Z,17.47
2018-11-23T15:26:58.091Z,17.33
2018-11-23T15:29:26.387Z,21.93
2018-11-23T15:31:54.698Z,18.97
2018-11-23T15:34:23.005Z,19.57
2018-11-23T15:36:51.344Z,22.20
2018-11-23T15:39:19.649Z,20.20
2018-11-23T15:41:47.954Z,23.30
2018-11-23T15:44:16.340Z,22.70
2018-11-23T15:46:44.627Z,23.30
2018-11-23T15:49:12.889Z,19.30
2018-11-23T15:51:41.154Z,24.07
2018-11-23T15:54:09.416Z,18.90
2018-11-23T15:56:37.665Z,18.83
2018-11-23T15:59:06.042Z,40.37
2018-11-23T16:01:34.337Z,22.90
2018-11-23T16:04:02.663Z,22.10
2018-11-23T16:06:30.989Z,16.00
2018-11-23T16:08:59.277Z,14.80
2018-11-23T16:11:27.597Z,12.77
2018-11-23T16:13:55.881Z,11.77
2018-11-23T16:16:24.169Z,13.83
2018-11-23T16:18:52.680Z,12.23
2018-11-23T16:21:20.975Z,13.23
2018-11-23T16:23:49.269Z,12.87
2018-11-23T16:26:17.645Z,14.80
2018-11-23T16:28:45.923Z,13.70
2018-11-23T16:31:14.251Z,13.80
2018-11-23T16:33:42.505Z,15.00
2018-11-23T16:36:10.761Z,12.13
2018-11-23T16:38:39.098Z,15.10
2018-11-23T16:41:07.461Z,13.50
2018-11-23T16:43:35.731Z,13.40
2018-11-23T16:46:04.083Z,14.77
2018-11-23T16:48:32.377Z,12.10
2018-11-23T16:51:00.610Z,13.30
2018-11-23T16:53:28.869Z,13.00
2018-11-23T16:55:58.225Z,13.40
2018-11-23T16:58:26.514Z,21.57
2018-11-23T17:00:54.766Z,18.20
2018-11-23T17:03:23.787Z,17.40
2018-11-23T17:05:53.352Z,14.23
2018-11-23T17:08:21.663Z,12.20
2018-11-23T17:10:49.930Z,14.67
2018-11-23T17:13:18.319Z,14.50
2018-11-23T17:15:46.661Z,14.40
2018-11-23T17:18:15.033Z,14.27
2018-11-23T17:20:43.315Z,14.70
2018-11-23T17:23:13.189Z,13.67
2018-11-23T17:25:41.563Z,13.50
2018-11-23T17:28:10.823Z,15.80
2018-11-23T17:30:39.228Z,13.33
2018-11-23T17:33:07.478Z,12.73
2018-11-23T17:35:35.977Z,14.80
2018-11-23T17:38:04.286Z,17.17
2018-11-23T17:40:34.476Z,29.30
2018-11-23T17:43:02.810Z,15.40
2018-11-23T17:45:32.278Z,16.90
2018-11-23T17:48:00.757Z,16.60
2018-11-23T17:50:32.187Z,24.30
2018-11-23T17:53:00.658Z,25.13
2018-11-23T17:55:29.118Z,27.37
2018-11-23T17:57:57.637Z,23.90
2018-11-23T18:00:27.283Z,25.67
2018-11-23T18:02:56.212Z,22.70
2018-11-23T18:05:25.490Z,26.50
2018-11-23T18:07:53.829Z,27.00
2018-11-23T18:10:23.534Z,30.70
2018-11-23T18:12:52.306Z,22.33
2018-11-23T18:15:22.767Z,20.60
2018-11-23T18:17:51.844Z,22.33
2018-11-23T18:20:21.575Z,21.27
2018-11-23T18:22:50.562Z,19.33
2018-11-23T18:25:20.451Z,25.10
2018-11-23T18:27:49.139Z,22.97
2018-11-23T18:30:17.398Z,21.17
2018-11-23T18:32:45.729Z,21.23
2018-11-23T18:35:14.205Z,24.50
2018-11-23T18:37:42.502Z,18.13
2018-11-23T18:40:12.000Z,19.37
2018-11-23T18:42:40.320Z,21.63
2018-11-23T18:45:12.017Z,20.40
2018-11-23T18:47:40.927Z,19.10
2018-11-23T18:50:10.492Z,20.13
2018-11-23T18:52:38.846Z,22.83
2018-11-23T18:55:07.788Z,19.47
2018-11-23T18:57:36.077Z,22.80
2018-11-23T19:00:04.780Z,23.30
2018-11-23T19:02:33.143Z,20.30
2018-11-23T19:05:01.429Z,23.00
2018-11-23T19:07:29.723Z,25.03
2018-11-23T19:09:58.063Z,22.77
2018-11-23T19:12:26.374Z,23.60
2018-11-23T19:14:54.641Z,29.80
2018-11-23T19:17:22.960Z,27.60
2018-11-23T19:19:51.328Z,30.53
2018-11-23T19:22:19.624Z,31.67
2018-11-23T19:24:48.006Z,28.53
2018-11-23T19:27:16.301Z,29.30
2018-11-23T19:29:44.625Z,27.37
2018-11-23T19:32:12.907Z,33.40
2018-11-23T19:34:41.229Z,29.93
2018-11-23T19:37:09.531Z,31.10
2018-11-23T19:39:37.807Z,33.20
2018-11-23T19:42:06.164Z,39.23
2018-11-23T19:44:34.549Z,34.03
2018-11-23T19:47:02.860Z,43.63
2018-11-23T19:49:31.138Z,37.47
2018-11-23T19:51:59.480Z,35.93
2018-11-23T19:54:27.836Z,35.67
2018-11-23T19:56:56.150Z,31.50
2018-11-23T19:59:24.531Z,33.03
2018-11-23T20:01:52.858Z,29.00
2018-11-23T20:04:21.173Z,31.30
2018-11-23T20:06:49.548Z,34.57
2018-11-23T20:09:17.875Z,36.50
2018-11-23T20:11:46.204Z,31.47
2018-11-23T20:14:14.461Z,33.13
2018-11-23T20:16:42.714Z,35.30
2018-11-23T20:19:10.986Z,32.17
2018-11-23T20:21:39.282Z,32.03
2018-11-23T20:24:07.677Z,35.93
2018-11-23T20:26:36.011Z,37.17
2018-11-23T20:29:04.295Z,32.00
2018-11-23T20:31:32.639Z,32.13
2018-11-23T20:34:00.947Z,27.27
2018-11-23T20:36:29.204Z,32.43
2018-11-23T20:38:57.606Z,29.50
2018-11-23T20:41:25.892Z,31.00
2018-11-23T20:43:54.334Z,27.13
2018-11-23T20:46:22.741Z,32.33
2018-11-23T20:48:51.112Z,28.90
2018-11-23T20:51:19.618Z,30.10
2018-11-23T20:53:48.037Z,26.23
2018-11-23T20:56:16.504Z,30.77
2018-11-23T20:58:44.858Z,33.90
2018-11-23T21:01:13.160Z,35.33
2018-11-23T21:03:41.728Z,30.10
2018-11-23T21:06:10.145Z,31.80
2018-11-23T21:08:38.465Z,28.60
2018-11-23T21:11:06.845Z,23.70
2018-11-23T21:13:35.233Z,24.93
2018-11-23T21:16:03.666Z,27.17
2018-11-23T21:18:32.035Z,35.77
2018-11-23T21:21:00.414Z,38.80
2018-11-23T21:23:28.909Z,28.37
2018-11-23T21:25:57.319Z,27.20
2018-11-23T21:28:25.646Z,26.43
2018-11-23T21:30:54.099Z,27.90
2018-11-23T21:33:22.511Z,26.77
2018-11-23T21:35:50.898Z,27.37
2018-11-23T21:38:19.309Z,26.40
2018-11-23T21:40:47.649Z,26.00
2018-11-23T21:43:16.117Z,27.90
2018-11-23T21:45:44.460Z,30.80
2018-11-23T21:48:12.888Z,23.93
2018-11-23T21:50:41.283Z,29.33
2018-11-23T21:53:09.775Z,34.20
2018-11-23T21:55:38.122Z,31.83
2018-11-23T21:58:06.458Z,32.70
2018-11-23T22:00:34.793Z,34.03
2018-11-23T22:03:03.151Z,31.80
2018-11-23T22:05:31.467Z,25.33
2018-11-23T22:07:59.868Z,24.33
2018-11-23T22:10:28.181Z,25.17
2018-11-23T22:12:56.507Z,26.50
2018-11-23T22:15:25.231Z,30.80
2018-11-23T22:17:54.757Z,25.10
2018-11-23T22:20:23.634Z,29.37
2018-11-23T22:22:51.917Z,25.33
2018-11-23T22:25:21.216Z,26.07
2018-11-23T22:27:49.592Z,30.17
2018-11-23T22:30:26.568Z,27.60
2018-11-23T22:32:55.021Z,24.00
2018-11-23T22:35:25.792Z,24.50
2018-11-23T22:37:54.233Z,25.07
2018-11-23T22:40:22.661Z,30.97
2018-11-23T22:42:53.270Z,26.67
2018-11-23T22:45:21.705Z,30.43
2018-11-23T22:47:50.059Z,24.93
2018-11-23T22:50:19.554Z,29.37
2018-11-23T22:52:48.020Z,22.40
2018-11-23T22:55:16.952Z,24.77
2018-11-23T22:57:45.321Z,23.97
2018-11-23T23:00:20.412Z,24.70
2018-11-23T23:02:49.243Z,28.00
2018-11-23T23:05:18.322Z,24.90
2018-11-23T23:07:46.687Z,21.30
2018-11-23T23:10:15.024Z,24.57
2018-11-23T23:12:43.312Z,22.23
2018-11-23T23:15:12.202Z,26.80
2018-11-23T23:17:41.135Z,23.93
2018-11-23T23:20:10.930Z,23.60
2018-11-23T23:22:39.336Z,23.80
2018-11-23T23:25:08.869Z,26.37
2018-11-23T23:27:37.200Z,23.67
2018-11-23T23:30:14.172Z,25.57
2018-11-23T23:32:42.548Z,28.67
2018-11-23T23:35:11.847Z,27.30
2018-11-23T23:37:40.470Z,24.60
2018-11-23T23:40:12.898Z,28.77
2018-11-23T23:42:41.234Z,26.07
2018-11-23T23:45:10.573Z,26.50
2018-11-23T23:47:38.873Z,29.83
2018-11-23T23:50:09.949Z,26.53
2018-11-23T23:52:38.237Z,25.80
2018-11-23T23:55:07.594Z,27.67
2018-11-23T23:57:35.839Z,30.53
